createdAt,value
2023-05-19T00:02:18.325Z,56.52
2023-05-19T00:04:44.783Z,56.54
2023-05-19T00:07:11.265Z,56.87
2023-05-19T00:09:37.887Z,57.45
2023-05-19T00:12:04.323Z,56.85
2023-05-19T00:14:30.892Z,56.69
2023-05-19T00:16:57.910Z,56.31
2023-05-19T00:19:25.372Z,57.01
2023-05-19T00:21:51.716Z,58.22
2023-05-19T00:24:18.069Z,58.46
2023-05-19T00:26:44.439Z,58.00
2023-05-19T00:29:10.768Z,57.28
2023-05-19T00:31:37.173Z,56.96
2023-05-19T00:34:03.529Z,56.55
2023-05-19T00:36:29.880Z,57.24
2023-05-19T00:38:56.210Z,58.04
2023-05-19T00:41:22.704Z,58.05
2023-05-19T00:43:49.173Z,57.92
2023-05-19T00:46:15.683Z,57.47
2023-05-19T00:48:44.618Z,56.71
2023-05-19T00:51:14.477Z,56.44
2023-05-19T00:53:40.842Z,56.18
2023-05-19T00:56:07.225Z,56.66
2023-05-19T00:58:33.575Z,57.65
2023-05-19T01:01:04.229Z,58.16
2023-05-19T01:03:31.594Z,58.89
2023-05-19T01:06:01.574Z,58.75
2023-05-19T01:08:28.930Z,59.46
2023-05-19T01:10:55.298Z,59.86
2023-05-19T01:13:21.654Z,59.33
2023-05-19T01:15:58.926Z,59.40
2023-05-19T01:18:46.377Z,58.83
2023-05-19T01:21:36.333Z,58.68
2023-05-19T01:24:03.715Z,58.87
2023-05-19T01:26:30.213Z,58.12
2023-05-19T01:29:14.784Z,57.84
2023-05-19T01:31:41.184Z,57.72
2023-05-19T01:34:07.520Z,57.44
2023-05-19T01:36:33.847Z,57.26
2023-05-19T01:39:00.822Z,57.40
2023-05-19T01:41:28.419Z,57.18
2023-05-19T01:43:54.849Z,57.20
2023-05-19T01:46:21.253Z,57.41
2023-05-19T01:48:47.716Z,57.35
2023-05-19T01:51:14.082Z,57.63
2023-05-19T01:53:40.596Z,57.32
2023-05-19T01:56:07.286Z,57.19
2023-05-19T01:58:46.572Z,57.24
2023-05-19T02:01:12.959Z,57.83
2023-05-19T02:03:42.465Z,57.86
2023-05-19T02:06:21.025Z,57.23
2023-05-19T02:08:51.221Z,57.00
2023-05-19T02:11:26.232Z,57.04
2023-05-19T02:13:53.088Z,57.50
2023-05-19T02:16:19.547Z,58.00
2023-05-19T02:18:46.203Z,57.69
2023-05-19T02:21:13.446Z,57.27
2023-05-19T02:23:41.064Z,56.75
2023-05-19T02:26:08.610Z,57.47
2023-05-19T02:28:35.154Z,57.21
2023-05-19T02:31:01.591Z,56.86
2023-05-19T02:33:30.249Z,56.33
2023-05-19T02:35:56.899Z,56.29
2023-05-19T02:38:23.271Z,56.44
2023-05-19T02:40:51.056Z,57.04
2023-05-19T02:43:17.387Z,57.41
2023-05-19T02:45:43.715Z,57.33
2023-05-19T02:48:10.077Z,57.38
2023-05-19T02:50:36.460Z,57.44
2023-05-19T02:53:03.663Z,57.01
2023-05-19T02:55:29.989Z,56.44
2023-05-19T02:57:56.438Z,56.70
2023-05-19T03:00:22.988Z,57.07
2023-05-19T03:02:49.626Z,56.77
2023-05-19T03:05:16.076Z,56.92
2023-05-19T03:07:42.412Z,57.54
2023-05-19T03:10:08.846Z,57.46
2023-05-19T03:12:35.251Z,57.03
2023-05-19T03:15:01.596Z,56.82
2023-05-19T03:17:33.620Z,56.95
2023-05-19T03:20:00.965Z,57.15
2023-05-19T03:22:27.351Z,57.14
2023-05-19T03:24:54.248Z,57.17
2023-05-19T03:27:20.598Z,57.09
2023-05-19T03:29:46.928Z,57.57
2023-05-19T03:32:13.359Z,57.41
2023-05-19T03:34:39.725Z,57.60
2023-05-19T03:37:06.055Z,57.31
2023-05-19T03:39:32.412Z,57.19
2023-05-19T03:41:58.791Z,56.67
2023-05-19T03:44:25.264Z,56.46
2023-05-19T03:46:51.623Z,57.14
2023-05-19T03:49:17.969Z,57.05
2023-05-19T03:51:44.320Z,57.02
2023-05-19T03:54:10.684Z,57.02
2023-05-19T03:56:40.102Z,56.94
2023-05-19T03:59:07.250Z,56.61
2023-05-19T04:01:33.602Z,56.23
2023-05-19T04:03:59.924Z,56.12
2023-05-19T04:06:26.271Z,56.03
2023-05-19T04:08:52.598Z,56.04
2023-05-19T04:11:20.036Z,55.70
2023-05-19T04:13:46.373Z,55.69
2023-05-19T04:16:12.735Z,55.74
2023-05-19T04:18:39.225Z,55.89
2023-05-19T04:21:05.581Z,55.83
2023-05-19T04:23:32.499Z,55.89
2023-05-19T04:25:59.030Z,55.88
2023-05-19T04:28:25.363Z,55.83
2023-05-19T04:30:51.870Z,56.46
2023-05-19T04:33:19.977Z,57.76
2023-05-19T04:35:46.320Z,57.75
2023-05-19T04:38:12.648Z,57.94
2023-05-19T04:40:40.344Z,57.19
2023-05-19T04:43:07.302Z,56.87
2023-05-19T04:45:33.981Z,56.58
2023-05-19T04:48:00.473Z,56.92
2023-05-19T04:50:28.566Z,57.29
2023-05-19T04:52:54.964Z,56.38
2023-05-19T04:55:21.310Z,56.26
2023-05-19T04:57:47.633Z,56.64
2023-05-19T05:00:14.385Z,56.77
2023-05-19T05:02:42.714Z,56.22
2023-05-19T05:05:10.102Z,55.71
2023-05-19T05:07:36.622Z,56.06
2023-05-19T05:10:03.900Z,55.96
2023-05-19T05:12:30.843Z,56.12
2023-05-19T05:14:57.447Z,57.11
2023-05-19T05:17:25.590Z,57.03
2023-05-19T05:19:52.026Z,56.58
2023-05-19T05:22:18.431Z,57.10
2023-05-19T05:24:44.881Z,56.82
2023-05-19T05:27:11.428Z,56.68
2023-05-19T05:29:37.863Z,57.19
2023-05-19T05:32:04.313Z,57.23
2023-05-19T05:34:30.738Z,57.11
2023-05-19T05:36:57.047Z,56.76
2023-05-19T05:39:23.371Z,57.30
2023-05-19T05:41:49.699Z,57.16
2023-05-19T05:44:16.017Z,57.22
2023-05-19T05:46:42.435Z,59.06
2023-05-19T05:49:09.019Z,59.65
2023-05-19T05:51:35.791Z,59.50
2023-05-19T05:54:02.128Z,58.52
2023-05-19T05:56:28.601Z,58.23
2023-05-19T05:58:54.984Z,58.16
2023-05-19T06:01:21.901Z,58.32
2023-05-19T06:03:48.292Z,59.41
2023-05-19T06:06:14.648Z,60.93
2023-05-19T06:08:41.072Z,60.54
2023-05-19T06:11:09.091Z,60.48
2023-05-19T06:13:35.886Z,60.22
2023-05-19T06:16:02.388Z,59.22
2023-05-19T06:18:28.906Z,59.23
2023-05-19T06:20:55.291Z,62.25
2023-05-19T06:23:21.720Z,62.48
2023-05-19T06:25:48.046Z,63.01
2023-05-19T06:28:14.377Z,62.48
2023-05-19T06:30:40.785Z,62.58
2023-05-19T06:33:07.225Z,62.92
2023-05-19T06:35:33.613Z,61.49
2023-05-19T06:37:59.964Z,60.29
2023-05-19T06:40:26.308Z,60.08
2023-05-19T06:42:52.798Z,60.64
2023-05-19T06:45:21.829Z,60.23
2023-05-19T06:47:48.446Z,60.05
2023-05-19T06:50:14.832Z,59.84
2023-05-19T06:52:41.214Z,59.40
2023-05-19T06:55:07.704Z,59.58
2023-05-19T06:57:34.042Z,62.17
2023-05-19T07:00:00.371Z,63.53
2023-05-19T07:02:26.797Z,63.98
2023-05-19T07:04:53.986Z,64.24
2023-05-19T07:07:20.403Z,64.80
2023-05-19T07:09:46.737Z,64.41
2023-05-19T07:12:13.067Z,64.15
2023-05-19T07:14:39.437Z,63.98
2023-05-19T07:17:05.864Z,65.23
2023-05-19T07:19:32.283Z,64.26
2023-05-19T07:21:59.336Z,64.49
2023-05-19T07:24:27.388Z,64.39
2023-05-19T07:26:53.756Z,65.21
2023-05-19T07:29:20.084Z,65.00
2023-05-19T07:31:46.488Z,63.61
2023-05-19T07:34:12.881Z,65.00
2023-05-19T07:36:39.214Z,64.53
2023-05-19T07:39:05.759Z,64.41
2023-05-19T07:41:33.214Z,63.44
2023-05-19T07:44:00.677Z,62.49
2023-05-19T07:46:27.189Z,61.25
2023-05-19T07:48:53.558Z,61.95
2023-05-19T07:51:20.023Z,63.48
2023-05-19T07:53:47.075Z,64.28
2023-05-19T07:56:13.540Z,65.63
2023-05-19T07:58:40.290Z,67.06
2023-05-19T08:01:06.703Z,67.17
2023-05-19T08:03:33.757Z,67.79
2023-05-19T08:06:00.288Z,68.23
2023-05-19T08:08:26.837Z,67.34
2023-05-19T08:10:53.152Z,68.05
2023-05-19T08:13:19.490Z,67.15
2023-05-19T08:15:46.023Z,66.67
2023-05-19T08:18:12.547Z,66.77
2023-05-19T08:20:38.977Z,66.68
2023-05-19T08:23:05.446Z,65.32
2023-05-19T08:25:32.066Z,64.86
2023-05-19T08:27:58.392Z,65.22
2023-05-19T08:30:24.871Z,64.59
2023-05-19T08:32:51.342Z,64.66
2023-05-19T08:35:17.767Z,63.83
2023-05-19T08:37:44.100Z,63.28
2023-05-19T08:40:11.863Z,63.15
2023-05-19T08:42:38.199Z,62.13
2023-05-19T08:45:04.735Z,61.65
2023-05-19T08:47:31.815Z,62.47
2023-05-19T08:50:00.726Z,62.51
2023-05-19T08:52:29.972Z,61.10
2023-05-19T08:55:01.252Z,60.46
2023-05-19T08:57:27.892Z,60.69
2023-05-19T08:59:54.528Z,60.93
2023-05-19T09:02:20.891Z,61.52
2023-05-19T09:04:48.028Z,61.08
2023-05-19T09:07:14.745Z,60.88
2023-05-19T09:09:43.507Z,60.23
2023-05-19T09:12:11.291Z,61.09
2023-05-19T09:14:37.993Z,59.25
2023-05-19T09:17:04.590Z,60.59
2023-05-19T09:19:31.250Z,61.88
2023-05-19T09:21:59.412Z,60.16
2023-05-19T09:24:25.988Z,59.27
2023-05-19T09:26:53.341Z,58.58
2023-05-19T09:29:19.950Z,56.80
2023-05-19T09:31:52.226Z,58.83
2023-05-19T09:34:18.746Z,59.33
2023-05-19T09:36:46.624Z,57.21
2023-05-19T09:39:14.212Z,57.17
2023-05-19T09:41:40.590Z,57.51
2023-05-19T09:44:07.333Z,58.06
2023-05-19T09:46:35.875Z,59.04
2023-05-19T09:49:08.578Z,57.35
2023-05-19T09:51:36.011Z,58.45
2023-05-19T09:54:02.671Z,58.78
2023-05-19T09:56:33.019Z,59.42
2023-05-19T09:58:59.408Z,59.71
2023-05-19T10:01:25.978Z,59.26
2023-05-19T10:03:52.471Z,58.36
2023-05-19T10:06:19.052Z,58.05
2023-05-19T10:08:45.480Z,57.41
2023-05-19T10:11:11.824Z,56.39
2023-05-19T10:13:38.539Z,55.30
2023-05-19T10:16:05.146Z,54.44
2023-05-19T10:18:31.495Z,55.30
2023-05-19T10:20:57.994Z,54.61
2023-05-19T10:23:24.684Z,53.98
2023-05-19T10:25:51.478Z,53.98
2023-05-19T10:28:17.883Z,54.40
2023-05-19T10:30:47.687Z,52.92
2023-05-19T10:33:15.254Z,54.53
2023-05-19T10:36:02.464Z,53.77
2023-05-19T10:38:42.940Z,54.66
2023-05-19T10:41:13.819Z,55.37
2023-05-19T10:43:45.779Z,55.37
2023-05-19T10:46:12.121Z,55.72
2023-05-19T10:48:38.473Z,54.47
2023-05-19T10:51:05.004Z,53.58
2023-05-19T10:53:31.860Z,50.97
2023-05-19T10:56:02.500Z,53.56
2023-05-19T10:58:39.131Z,54.18
2023-05-19T11:01:09.878Z,54.61
2023-05-19T11:03:46.920Z,54.65
2023-05-19T11:06:29.496Z,55.08
2023-05-19T11:08:57.015Z,55.00
2023-05-19T11:11:23.620Z,54.14
2023-05-19T11:13:54.956Z,55.60
2023-05-19T11:16:30.286Z,54.58
2023-05-19T11:18:56.876Z,55.65
2023-05-19T11:21:23.278Z,55.47
2023-05-19T11:23:50.873Z,54.70
2023-05-19T11:26:17.199Z,54.45
2023-05-19T11:28:43.593Z,53.92
2023-05-19T11:31:10.351Z,54.33
2023-05-19T11:33:36.934Z,53.85
2023-05-19T11:36:03.878Z,55.19
2023-05-19T11:38:30.398Z,55.78
2023-05-19T11:40:56.929Z,55.95
2023-05-19T11:43:24.139Z,55.43
2023-05-19T11:45:50.926Z,55.34
2023-05-19T11:48:18.247Z,55.69
2023-05-19T11:50:44.707Z,53.38
2023-05-19T11:53:12.023Z,53.82
2023-05-19T11:55:41.867Z,54.23
2023-05-19T11:58:08.169Z,54.90
2023-05-19T12:00:38.858Z,54.87
2023-05-19T12:03:05.847Z,54.32
2023-05-19T12:05:34.962Z,55.49
2023-05-19T12:08:03.913Z,55.34
2023-05-19T12:10:31.006Z,55.08
2023-05-19T12:12:58.383Z,55.16
2023-05-19T12:15:24.754Z,54.27
2023-05-19T12:17:57.398Z,53.88
2023-05-19T12:20:23.857Z,53.08
2023-05-19T12:22:50.723Z,53.57
2023-05-19T12:25:17.212Z,55.26
2023-05-19T12:27:43.601Z,54.75
2023-05-19T12:30:10.370Z,54.57
2023-05-19T12:32:36.849Z,55.05
2023-05-19T12:35:04.679Z,55.12
2023-05-19T12:37:31.058Z,54.79
2023-05-19T12:39:57.554Z,54.61
2023-05-19T12:42:24.250Z,54.02
2023-05-19T12:44:53.809Z,54.32
2023-05-19T12:47:20.203Z,53.58
2023-05-19T12:49:56.645Z,54.24
2023-05-19T12:52:23.345Z,54.50
2023-05-19T12:54:50.311Z,53.98
2023-05-19T12:57:16.894Z,53.95
2023-05-19T12:59:43.693Z,53.71
2023-05-19T13:02:10.187Z,54.47
2023-05-19T13:04:36.639Z,54.22
2023-05-19T13:07:02.998Z,55.44
2023-05-19T13:09:29.328Z,54.96
2023-05-19T13:11:55.910Z,54.63
2023-05-19T13:14:22.248Z,52.93
2023-05-19T13:16:48.655Z,53.50
2023-05-19T13:19:24.789Z,54.37
2023-05-19T13:21:52.278Z,55.78
2023-05-19T13:24:18.714Z,57.65
2023-05-19T13:26:45.189Z,57.52
2023-05-19T13:29:11.907Z,59.05
2023-05-19T13:31:38.318Z,61.04
2023-05-19T13:34:04.695Z,58.92
2023-05-19T13:36:33.152Z,58.07
2023-05-19T13:39:00.714Z,58.60
2023-05-19T13:41:27.147Z,57.03
2023-05-19T13:43:53.521Z,56.50
2023-05-19T13:46:26.552Z,56.79
2023-05-19T13:48:59.304Z,58.04
2023-05-19T13:51:25.886Z,57.47
2023-05-19T13:53:52.527Z,58.73
2023-05-19T13:56:18.872Z,57.70
2023-05-19T13:58:45.268Z,56.95
2023-05-19T14:01:11.720Z,55.79
2023-05-19T14:03:38.178Z,55.67
2023-05-19T14:06:04.622Z,56.54
2023-05-19T14:08:31.020Z,57.23
2023-05-19T14:10:57.415Z,57.95
2023-05-19T14:15:53.668Z,57.32
2023-05-19T14:18:20.404Z,56.71
2023-05-19T14:20:46.747Z,56.20
2023-05-19T14:23:14.941Z,55.23
2023-05-19T14:25:41.424Z,55.12
2023-05-19T14:28:07.791Z,54.62
2023-05-19T14:30:34.359Z,54.19
2023-05-19T14:33:01.066Z,54.46
2023-05-19T14:35:27.528Z,53.88
2023-05-19T14:37:53.934Z,55.67
2023-05-19T14:40:20.386Z,55.20
2023-05-19T14:42:46.742Z,55.04
2023-05-19T14:45:13.253Z,55.20
2023-05-19T14:47:39.648Z,55.71
2023-05-19T14:50:06.252Z,56.12
2023-05-19T14:52:32.607Z,55.70
2023-05-19T14:54:58.954Z,55.21
2023-05-19T14:57:25.308Z,54.52
2023-05-19T14:59:51.653Z,54.18
2023-05-19T15:02:18.020Z,53.06
2023-05-19T15:04:44.379Z,53.03
2023-05-19T15:07:11.266Z,53.51
2023-05-19T15:09:37.781Z,54.12
2023-05-19T15:12:04.185Z,54.11
2023-05-19T15:14:31.283Z,54.42
2023-05-19T15:16:58.038Z,55.24
2023-05-19T15:19:24.676Z,55.66
2023-05-19T15:21:51.167Z,56.62
2023-05-19T15:24:17.565Z,56.07
2023-05-19T15:26:43.917Z,55.86
2023-05-19T15:29:12.056Z,56.55
2023-05-19T15:31:38.691Z,56.05
2023-05-19T15:34:05.164Z,55.61
2023-05-19T15:36:31.863Z,56.44
2023-05-19T15:38:58.234Z,55.72
2023-05-19T15:41:24.593Z,54.25
2023-05-19T15:43:51.194Z,55.20
2023-05-19T15:46:19.527Z,55.05
2023-05-19T15:48:46.228Z,54.31
2023-05-19T15:51:12.580Z,55.09
2023-05-19T15:53:38.985Z,55.59
2023-05-19T15:56:05.420Z,54.53
2023-05-19T15:58:31.769Z,55.30
2023-05-19T16:00:58.091Z,54.59
2023-05-19T16:03:24.556Z,54.77
2023-05-19T16:05:51.227Z,54.64
2023-05-19T16:08:17.580Z,55.24
2023-05-19T16:10:43.915Z,55.50
2023-05-19T16:13:10.302Z,55.34
2023-05-19T16:15:36.637Z,54.72
2023-05-19T16:18:03.126Z,54.13
2023-05-19T16:20:29.799Z,54.58
2023-05-19T16:22:56.189Z,53.68
2023-05-19T16:25:22.735Z,52.91
2023-05-19T16:27:49.080Z,53.73
2023-05-19T16:30:16.467Z,54.85
2023-05-19T16:32:42.873Z,54.70
2023-05-19T16:35:09.366Z,54.60
2023-05-19T16:37:35.714Z,54.13
2023-05-19T16:40:02.072Z,54.59
2023-05-19T16:42:28.419Z,54.50
2023-05-19T16:44:54.791Z,54.60
2023-05-19T16:47:21.148Z,55.10
2023-05-19T16:49:47.488Z,55.77
2023-05-19T16:52:13.844Z,55.70
2023-05-19T16:54:40.177Z,54.95
2023-05-19T16:57:06.514Z,54.44
2023-05-19T16:59:32.847Z,54.12
2023-05-19T17:01:59.249Z,53.86
2023-05-19T17:04:25.643Z,53.43
2023-05-19T17:06:51.976Z,54.86
2023-05-19T17:09:24.813Z,53.60
2023-05-19T17:11:52.395Z,53.69
2023-05-19T17:14:18.756Z,52.90
2023-05-19T17:16:45.128Z,52.14
2023-05-19T17:19:12.010Z,52.60
2023-05-19T17:21:38.477Z,52.61
2023-05-19T17:24:05.091Z,50.71
2023-05-19T17:26:31.422Z,51.43
2023-05-19T17:28:57.764Z,51.77
2023-05-19T17:31:24.087Z,52.14
2023-05-19T17:33:50.680Z,51.88
2023-05-19T17:36:17.094Z,51.15
2023-05-19T17:38:43.462Z,51.02
2023-05-19T17:41:10.101Z,51.75
2023-05-19T17:43:37.205Z,52.52
2023-05-19T17:46:03.761Z,52.58
2023-05-19T17:48:30.899Z,52.37
2023-05-19T17:50:57.222Z,52.58
2023-05-19T17:53:23.712Z,52.62
2023-05-19T17:55:50.643Z,53.33
2023-05-19T17:58:20.261Z,52.90
2023-05-19T18:00:46.696Z,53.39
2023-05-19T18:03:13.229Z,52.49
2023-05-19T18:05:40.081Z,52.84
2023-05-19T18:08:07.072Z,52.03
2023-05-19T18:10:35.394Z,52.46
2023-05-19T18:13:01.813Z,52.44
2023-05-19T18:15:28.160Z,53.19
2023-05-19T18:17:54.561Z,52.97
2023-05-19T18:20:21.178Z,52.92
2023-05-19T18:22:47.516Z,52.20
2023-05-19T18:25:13.857Z,52.66
2023-05-19T18:27:42.465Z,52.44
2023-05-19T18:30:08.803Z,52.37
2023-05-19T18:32:35.201Z,52.96
2023-05-19T18:35:01.564Z,53.38
2023-05-19T18:37:28.539Z,54.36
2023-05-19T18:39:54.874Z,54.52
2023-05-19T18:42:21.272Z,54.55
2023-05-19T18:44:47.650Z,54.85
2023-05-19T18:47:14.426Z,55.32
2023-05-19T18:49:40.755Z,55.03
2023-05-19T18:52:07.096Z,55.04
2023-05-19T18:54:33.552Z,53.92
2023-05-19T18:56:59.912Z,55.13
2023-05-19T18:59:26.306Z,55.60
2023-05-19T19:01:53.023Z,54.79
2023-05-19T19:04:19.488Z,54.49
2023-05-19T19:06:46.653Z,54.91
2023-05-19T19:09:12.984Z,55.40
2023-05-19T19:11:39.333Z,56.80
2023-05-19T19:14:05.655Z,56.04
2023-05-19T19:16:32.074Z,56.49
2023-05-19T19:18:58.614Z,57.05
2023-05-19T19:21:25.706Z,57.27
2023-05-19T19:23:52.688Z,56.29
2023-05-19T19:26:19.016Z,55.78
2023-05-19T19:28:46.210Z,55.43
2023-05-19T19:31:12.566Z,55.61
2023-05-19T19:33:39.699Z,55.76
2023-05-19T19:36:06.190Z,56.11
2023-05-19T19:38:32.509Z,56.32
2023-05-19T19:40:59.088Z,56.54
2023-05-19T19:43:25.436Z,57.11
2023-05-19T19:45:58.784Z,57.04
2023-05-19T19:48:25.165Z,56.01
2023-05-19T19:50:57.452Z,56.30
2023-05-19T19:53:23.788Z,57.29
2023-05-19T19:55:59.420Z,57.00
2023-05-19T19:58:26.069Z,57.02
2023-05-19T20:00:56.041Z,56.45
2023-05-19T20:03:22.514Z,56.11
2023-05-19T20:05:48.956Z,56.83
2023-05-19T20:08:16.137Z,58.36
2023-05-19T20:10:42.561Z,59.94
2023-05-19T20:13:08.890Z,60.25
2023-05-19T20:15:35.212Z,59.30
2023-05-19T20:18:01.635Z,58.59
2023-05-19T20:20:28.072Z,57.91
2023-05-19T20:22:54.397Z,57.35
2023-05-19T20:25:20.837Z,57.93
2023-05-19T20:27:47.185Z,57.24
2023-05-19T20:30:13.547Z,56.97
2023-05-19T20:32:40.015Z,56.77
2023-05-19T20:35:06.829Z,57.78
2023-05-19T20:37:33.187Z,57.85
2023-05-19T20:39:59.581Z,57.48
2023-05-19T20:42:25.942Z,57.60
2023-05-19T20:44:52.268Z,57.73
2023-05-19T20:47:19.193Z,59.01
2023-05-19T20:49:45.740Z,59.67
2023-05-19T20:52:12.081Z,60.05
2023-05-19T20:54:38.420Z,60.57
2023-05-19T20:57:08.915Z,60.55
2023-05-19T20:59:35.737Z,60.18
2023-05-19T21:02:02.296Z,59.48
2023-05-19T21:04:28.666Z,59.80
2023-05-19T21:06:55.099Z,60.79
2023-05-19T21:09:21.631Z,60.95
2023-05-19T21:11:47.944Z,59.30
2023-05-19T21:14:14.273Z,60.57
2023-05-19T21:16:42.304Z,60.16
2023-05-19T21:19:08.693Z,59.48
2023-05-19T21:21:35.043Z,59.43
2023-05-19T21:24:01.394Z,60.51
2023-05-19T21:26:27.727Z,60.12
2023-05-19T21:28:54.120Z,60.18
2023-05-19T21:31:20.507Z,60.49
2023-05-19T21:33:46.900Z,59.33
2023-05-19T21:36:13.266Z,59.81
2023-05-19T21:38:39.588Z,59.17
2023-05-19T21:41:05.924Z,58.62
2023-05-19T21:43:32.264Z,58.25
2023-05-19T21:45:58.653Z,58.23
2023-05-19T21:48:25.080Z,58.24
2023-05-19T21:50:54.646Z,58.20
2023-05-19T21:53:21.086Z,58.14
2023-05-19T21:55:47.451Z,57.92
2023-05-19T21:58:13.798Z,58.23
2023-05-19T22:00:40.492Z,58.03
2023-05-19T22:03:07.286Z,58.15
2023-05-19T22:05:35.103Z,57.50
2023-05-19T22:08:01.550Z,57.54
2023-05-19T22:10:27.895Z,57.87
2023-05-19T22:12:54.220Z,57.65
2023-05-19T22:15:20.698Z,57.61
2023-05-19T22:17:47.144Z,57.60
2023-05-19T22:20:13.574Z,57.45
2023-05-19T22:22:39.886Z,57.47
2023-05-19T22:25:06.951Z,58.05
2023-05-19T22:27:33.287Z,58.16
2023-05-19T22:29:59.689Z,58.63
2023-05-19T22:32:26.174Z,58.57
2023-05-19T22:34:52.589Z,58.70
2023-05-19T22:37:19.017Z,59.17
2023-05-19T22:39:45.419Z,58.98
2023-05-19T22:42:11.758Z,58.19
2023-05-19T22:44:38.093Z,58.18
2023-05-19T22:47:04.512Z,58.14
2023-05-19T22:49:30.980Z,58.61
2023-05-19T22:51:57.327Z,58.51
2023-05-19T22:54:23.734Z,58.63
2023-05-19T22:56:50.203Z,58.56
2023-05-19T22:59:17.737Z,58.20
2023-05-19T23:01:46.271Z,58.01
2023-05-19T23:04:13.015Z,57.78
2023-05-19T23:06:39.342Z,57.63
2023-05-19T23:09:05.764Z,58.29
2023-05-19T23:11:32.114Z,58.11
2023-05-19T23:13:58.549Z,57.91
2023-05-19T23:16:24.916Z,57.09
2023-05-19T23:18:51.343Z,57.15
2023-05-19T23:21:17.766Z,56.17
2023-05-19T23:23:44.111Z,55.66
2023-05-19T23:26:13.166Z,56.11
2023-05-19T23:28:40.244Z,56.42
2023-05-19T23:31:06.642Z,56.62
2023-05-19T23:33:33.011Z,56.47
2023-05-19T23:35:59.487Z,56.73
2023-05-19T23:38:26.930Z,56.09
2023-05-19T23:40:53.271Z,56.58
2023-05-19T23:43:19.610Z,56.58
2023-05-19T23:45:45.993Z,56.26
2023-05-19T23:48:12.438Z,55.99
2023-05-19T23:50:38.937Z,56.84
2023-05-19T23:53:05.270Z,56.14
2023-05-19T23:55:31.836Z,55.67
2023-05-19T23:57:58.417Z,55.38
